sensor_id;sensor_type;location;lat;lon;timestamp;pressure;altitude;pressure_sealevel;temperature;humidity
73085;BME280;62974;49.460;10.892;2022-09-09T00:01:22;97479.47;;;16.28;68.35
73085;BME280;62974;49.460;10.892;2022-09-09T00:03:58;97476.75;;;16.28;68.37
73085;BME280;62974;49.460;10.892;2022-09-09T00:06:30;97479.13;;;16.24;68.61
73085;BME280;62974;49.460;10.892;2022-09-09T00:09:02;97476.91;;;16.21;68.42
73085;BME280;62974;49.460;10.892;2022-09-09T00:11:40;97473.03;;;16.17;68.67
73085;BME280;62974;49.460;10.892;2022-09-09T00:14:13;97478.78;;;16.21;68.51
73085;BME280;62974;49.460;10.892;2022-09-09T00:16:47;97474.19;;;16.21;68.41
73085;BME280;62974;49.460;10.892;2022-09-09T00:19:22;97468.69;;;16.16;68.36
73085;BME280;62974;49.460;10.892;2022-09-09T00:21:58;97471.88;;;16.13;68.55
73085;BME280;62974;49.460;10.892;2022-09-09T00:24:32;97460.22;;;16.13;68.56
73085;BME280;62974;49.460;10.892;2022-09-09T00:27:07;97464.00;;;16.12;68.59
73085;BME280;62974;49.460;10.892;2022-09-09T00:29:41;97461.88;;;16.14;68.57
73085;BME280;62974;49.460;10.892;2022-09-09T00:32:13;97461.31;;;16.12;68.74
73085;BME280;62974;49.460;10.892;2022-09-09T00:34:48;97457.78;;;16.11;68.50
73085;BME280;62974;49.460;10.892;2022-09-09T00:37:18;97460.16;;;16.08;68.64
73085;BME280;62974;49.460;10.892;2022-09-09T00:39:47;97456.63;;;16.07;68.65
73085;BME280;62974;49.460;10.892;2022-09-09T00:42:17;97460.03;;;16.03;68.57
73085;BME280;62974;49.460;10.892;2022-09-09T00:44:59;97453.81;;;16.02;68.99
73085;BME280;62974;49.460;10.892;2022-09-09T00:47:40;97458.88;;;15.98;68.93
73085;BME280;62974;49.460;10.892;2022-09-09T00:50:21;97459.94;;;15.97;69.10
73085;BME280;62974;49.460;10.892;2022-09-09T00:53:00;97459.13;;;15.97;68.87
73085;BME280;62974;49.460;10.892;2022-09-09T00:55:39;97455.84;;;15.95;68.86
73085;BME280;62974;49.460;10.892;2022-09-09T00:58:09;97452.88;;;15.96;68.91
73085;BME280;62974;49.460;10.892;2022-09-09T01:00:42;97456.06;;;15.93;68.99
73085;BME280;62974;49.460;10.892;2022-09-09T01:03:19;97456.56;;;15.90;69.02
73085;BME280;62974;49.460;10.892;2022-09-09T01:05:57;97462.47;;;15.87;69.06
73085;BME280;62974;49.460;10.892;2022-09-09T01:08:42;97458.13;;;15.86;69.09
73085;BME280;62974;49.460;10.892;2022-09-09T01:11:20;97455.63;;;15.85;68.84
73085;BME280;62974;49.460;10.892;2022-09-09T01:13:54;97464.25;;;15.82;68.92
73085;BME280;62974;49.460;10.892;2022-09-09T01:16:27;97465.09;;;15.82;68.95
73085;BME280;62974;49.460;10.892;2022-09-09T01:18:58;97463.44;;;15.81;68.93
73085;BME280;62974;49.460;10.892;2022-09-09T01:21:35;97469.09;;;15.80;68.89
73085;BME280;62974;49.460;10.892;2022-09-09T01:24:19;97468.50;;;15.78;69.00
73085;BME280;62974;49.460;10.892;2022-09-09T01:26:51;97473.09;;;15.77;69.07
73085;BME280;62974;49.460;10.892;2022-09-09T01:29:21;97466.28;;;15.75;69.04
73085;BME280;62974;49.460;10.892;2022-09-09T01:31:55;97466.28;;;15.75;69.47
73085;BME280;62974;49.460;10.892;2022-09-09T01:34:24;97470.88;;;15.74;69.19
73085;BME280;62974;49.460;10.892;2022-09-09T01:36:57;97464.91;;;15.72;69.17
73085;BME280;62974;49.460;10.892;2022-09-09T01:39:26;97465.97;;;15.71;69.34
73085;BME280;62974;49.460;10.892;2022-09-09T01:41:56;97455.34;;;15.70;69.19
73085;BME280;62974;49.460;10.892;2022-09-09T01:44:24;97461.81;;;15.69;69.30
73085;BME280;62974;49.460;10.892;2022-09-09T01:46:53;97469.38;;;15.67;69.54
73085;BME280;62974;49.460;10.892;2022-09-09T01:49:21;97462.91;;;15.68;69.25
73085;BME280;62974;49.460;10.892;2022-09-09T01:51:51;97463.16;;;15.66;69.31
73085;BME280;62974;49.460;10.892;2022-09-09T01:54:20;97464.69;;;15.62;69.47
73085;BME280;62974;49.460;10.892;2022-09-09T01:56:59;97459.50;;;15.61;69.63
73085;BME280;62974;49.460;10.892;2022-09-09T01:59:45;97463.63;;;15.63;69.37
73085;BME280;62974;49.460;10.892;2022-09-09T02:02:18;97456.00;;;15.60;69.39
73085;BME280;62974;49.460;10.892;2022-09-09T02:04:48;97456.00;;;15.60;69.61
73085;BME280;62974;49.460;10.892;2022-09-09T02:07:28;97461.03;;;15.57;69.90
73085;BME280;62974;49.460;10.892;2022-09-09T02:10:02;97461.03;;;15.57;69.47
73085;BME280;62974;49.460;10.892;2022-09-09T02:12:35;97450.72;;;15.54;69.73
73085;BME280;62974;49.460;10.892;2022-09-09T02:15:12;97461.78;;;15.52;69.84
73085;BME280;62974;49.460;10.892;2022-09-09T02:17:42;97462.97;;;15.56;70.03
73085;BME280;62974;49.460;10.892;2022-09-09T02:20:12;97450.72;;;15.54;69.64
73085;BME280;62974;49.460;10.892;2022-09-09T02:22:43;97449.53;;;15.49;69.76
73085;BME280;62974;49.460;10.892;2022-09-09T02:25:14;97445.97;;;15.49;69.78
73085;BME280;62974;49.460;10.892;2022-09-09T02:27:45;97444.13;;;15.49;70.03
73085;BME280;62974;49.460;10.892;2022-09-09T02:30:14;97441.66;;;15.48;70.20
73085;BME280;62974;49.460;10.892;2022-09-09T02:32:43;97447.06;;;15.48;69.93
73085;BME280;62974;49.460;10.892;2022-09-09T02:35:15;97459.78;;;15.47;69.92
73085;BME280;62974;49.460;10.892;2022-09-09T02:37:45;97460.25;;;15.44;69.96
73085;BME280;62974;49.460;10.892;2022-09-09T02:40:14;97456.94;;;15.42;70.18
73085;BME280;62974;49.460;10.892;2022-09-09T02:42:46;97456.72;;;15.44;70.12
73085;BME280;62974;49.460;10.892;2022-09-09T02:45:17;97449.44;;;15.44;70.20
73085;BME280;62974;49.460;10.892;2022-09-09T02:47:50;97447.19;;;15.41;70.42
73085;BME280;62974;49.460;10.892;2022-09-09T02:50:22;97447.44;;;15.40;70.32
73085;BME280;62974;49.460;10.892;2022-09-09T02:53:04;97451.44;;;15.37;70.37
73085;BME280;62974;49.460;10.892;2022-09-09T02:55:38;97446.84;;;15.38;70.25
73085;BME280;62974;49.460;10.892;2022-09-09T02:58:12;97446.84;;;15.38;70.44
73085;BME280;62974;49.460;10.892;2022-09-09T03:00:43;97453.06;;;15.38;70.45
73085;BME280;62974;49.460;10.892;2022-09-09T03:03:13;97457.66;;;15.38;70.76
73085;BME280;62974;49.460;10.892;2022-09-09T03:05:43;97458.72;;;15.37;70.53
73085;BME280;62974;49.460;10.892;2022-09-09T03:08:11;97453.91;;;15.39;70.46
73085;BME280;62974;49.460;10.892;2022-09-09T03:10:39;97452.75;;;15.35;70.70
73085;BME280;62974;49.460;10.892;2022-09-09T03:13:07;97449.44;;;15.33;70.52
73085;BME280;62974;49.460;10.892;2022-09-09T03:15:36;97458.63;;;15.32;70.72
73085;BME280;62974;49.460;10.892;2022-09-09T03:18:04;97451.78;;;15.29;70.63
73085;BME280;62974;49.460;10.892;2022-09-09T03:20:32;97444.28;;;15.31;70.55
73085;BME280;62974;49.460;10.892;2022-09-09T03:23:00;97438.53;;;15.28;70.98
73085;BME280;62974;49.460;10.892;2022-09-09T03:25:28;97437.69;;;15.27;70.63
73085;BME280;62974;49.460;10.892;2022-09-09T03:27:56;97442.28;;;15.27;70.94
73085;BME280;62974;49.460;10.892;2022-09-09T03:30:25;97439.34;;;15.28;70.88
73085;BME280;62974;49.460;10.892;2022-09-09T03:32:54;97442.28;;;15.27;70.82
73085;BME280;62974;49.460;10.892;2022-09-09T03:35:23;97436.06;;;15.26;71.02
73085;BME280;62974;49.460;10.892;2022-09-09T03:37:50;97440.41;;;15.27;70.91
73085;BME280;62974;49.460;10.892;2022-09-09T03:40:18;97447.94;;;15.25;70.81
73085;BME280;62974;49.460;10.892;2022-09-09T03:42:46;97436.53;;;15.23;71.28
73085;BME280;62974;49.460;10.892;2022-09-09T03:45:14;97439.47;;;15.22;71.05
73085;BME280;62974;49.460;10.892;2022-09-09T03:47:43;97443.81;;;15.23;70.97
73085;BME280;62974;49.460;10.892;2022-09-09T03:50:12;97445.13;;;15.20;71.15
73085;BME280;62974;49.460;10.892;2022-09-09T03:52:40;97453.25;;;15.20;71.31
73085;BME280;62974;49.460;10.892;2022-09-09T03:55:08;97430.53;;;15.21;71.32
73085;BME280;62974;49.460;10.892;2022-09-09T03:57:36;97433.72;;;15.18;71.64
73085;BME280;62974;49.460;10.892;2022-09-09T04:00:05;97433.72;;;15.18;71.45
73085;BME280;62974;49.460;10.892;2022-09-09T04:02:33;97436.22;;;15.08;72.00
73085;BME280;62974;49.460;10.892;2022-09-09T04:05:01;97438.22;;;15.13;71.47
73085;BME280;62974;49.460;10.892;2022-09-09T04:07:30;97439.94;;;15.19;71.53
73085;BME280;62974;49.460;10.892;2022-09-09T04:09:57;97433.50;;;15.20;71.50
73085;BME280;62974;49.460;10.892;2022-09-09T04:12:25;97437.47;;;15.17;71.59
73085;BME280;62974;49.460;10.892;2022-09-09T04:14:53;97431.28;;;15.17;71.49
73085;BME280;62974;49.460;10.892;2022-09-09T04:17:20;97433.72;;;15.18;71.67
73085;BME280;62974;49.460;10.892;2022-09-09T04:19:48;97431.00;;;15.18;71.38
73085;BME280;62974;49.460;10.892;2022-09-09T04:22:15;97443.72;;;15.18;71.50
73085;BME280;62974;49.460;10.892;2022-09-09T04:24:44;97441.84;;;15.18;71.70
73085;BME280;62974;49.460;10.892;2022-09-09T04:27:14;97431.00;;;15.18;71.57
73085;BME280;62974;49.460;10.892;2022-09-09T04:29:41;97429.84;;;15.14;71.85
73085;BME280;62974;49.460;10.892;2022-09-09T04:32:09;97435.84;;;15.16;71.91
73085;BME280;62974;49.460;10.892;2022-09-09T04:34:37;97433.97;;;15.17;71.74
73085;BME280;62974;49.460;10.892;2022-09-09T04:37:04;97426.09;;;15.15;71.77
73085;BME280;62974;49.460;10.892;2022-09-09T04:39:32;97423.38;;;15.15;71.56
73085;BME280;62974;49.460;10.892;2022-09-09T04:42:01;97426.09;;;15.15;71.98
73085;BME280;62974;49.460;10.892;2022-09-09T04:44:29;97434.19;;;15.15;71.65
73085;BME280;62974;49.460;10.892;2022-09-09T04:46:57;97436.06;;;15.15;72.03
73085;BME280;62974;49.460;10.892;2022-09-09T04:49:24;97436.91;;;15.15;72.09
73085;BME280;62974;49.460;10.892;2022-09-09T04:51:52;97443.84;;;15.11;72.29
73085;BME280;62974;49.460;10.892;2022-09-09T04:54:19;97442.47;;;15.09;72.38
73085;BME280;62974;49.460;10.892;2022-09-09T04:56:49;97453.00;;;15.10;72.33
73085;BME280;62974;49.460;10.892;2022-09-09T04:59:18;97462.19;;;15.09;72.21
73085;BME280;62974;49.460;10.892;2022-09-09T05:01:46;97458.44;;;15.10;72.19
73085;BME280;62974;49.460;10.892;2022-09-09T05:04:14;97461.13;;;15.10;72.20
73085;BME280;62974;49.460;10.892;2022-09-09T05:06:42;97464.31;;;15.07;71.66
73085;BME280;62974;49.460;10.892;2022-09-09T05:09:10;97476.41;;;14.93;72.75
73085;BME280;62974;49.460;10.892;2022-09-09T05:11:37;97473.63;;;14.99;72.32
73085;BME280;62974;49.460;10.892;2022-09-09T05:14:05;97475.25;;;14.89;72.57
73085;BME280;62974;49.460;10.892;2022-09-09T05:16:34;97473.84;;;14.75;73.75
73085;BME280;62974;49.460;10.892;2022-09-09T05:19:02;97477.59;;;14.85;73.02
73085;BME280;62974;49.460;10.892;2022-09-09T05:21:30;97474.31;;;14.83;73.10
73085;BME280;62974;49.460;10.892;2022-09-09T05:23:58;97478.56;;;14.91;72.90
73085;BME280;62974;49.460;10.892;2022-09-09T05:26:26;97480.31;;;14.85;73.55
73085;BME280;62974;49.460;10.892;2022-09-09T05:28:55;97476.69;;;14.80;73.77
73085;BME280;62974;49.460;10.892;2022-09-09T05:31:23;97481.25;;;14.91;73.37
73085;BME280;62974;49.460;10.892;2022-09-09T05:33:55;97480.06;;;14.98;72.72
73085;BME280;62974;49.460;10.892;2022-09-09T05:36:23;97486.53;;;14.86;73.96
73085;BME280;62974;49.460;10.892;2022-09-09T05:38:50;97489.25;;;14.86;73.95
73085;BME280;62974;49.460;10.892;2022-09-09T05:41:20;97487.25;;;14.93;73.53
73085;BME280;62974;49.460;10.892;2022-09-09T05:43:49;97485.72;;;14.97;73.72
73085;BME280;62974;49.460;10.892;2022-09-09T05:46:19;97486.66;;;14.91;74.55
73085;BME280;62974;49.460;10.892;2022-09-09T05:48:48;97489.50;;;14.73;75.33
73085;BME280;62974;49.460;10.892;2022-09-09T05:51:20;97483.00;;;14.74;74.85
73085;BME280;62974;49.460;10.892;2022-09-09T05:53:48;97479.88;;;14.77;74.91
73085;BME280;62974;49.460;10.892;2022-09-09T05:56:19;97481.47;;;14.89;73.95
73085;BME280;62974;49.460;10.892;2022-09-09T05:58:49;97490.19;;;15.03;73.45
73085;BME280;62974;49.460;10.892;2022-09-09T06:01:18;97487.25;;;15.04;73.55
73085;BME280;62974;49.460;10.892;2022-09-09T06:03:47;97481.03;;;15.04;73.85
73085;BME280;62974;49.460;10.892;2022-09-09T06:06:16;97482.41;;;15.07;73.77
73085;BME280;62974;49.460;10.892;2022-09-09T06:08:50;97488.31;;;15.03;73.89
73085;BME280;62974;49.460;10.892;2022-09-09T06:11:20;97483.59;;;15.11;73.57
73085;BME280;62974;49.460;10.892;2022-09-09T06:13:49;97479.13;;;15.16;73.46
73085;BME280;62974;49.460;10.892;2022-09-09T06:16:18;97478.03;;;15.17;73.69
73085;BME280;62974;49.460;10.892;2022-09-09T06:18:46;97478.31;;;15.16;74.17
73085;BME280;62974;49.460;10.892;2022-09-09T06:21:16;97473.94;;;15.15;73.98
73085;BME280;62974;49.460;10.892;2022-09-09T06:23:44;97475.13;;;15.19;74.29
73085;BME280;62974;49.460;10.892;2022-09-09T06:26:15;97477.63;;;15.09;75.05
73085;BME280;62974;49.460;10.892;2022-09-09T06:28:44;97482.19;;;15.08;74.57
73085;BME280;62974;49.460;10.892;2022-09-09T06:31:13;97481.72;;;15.11;74.50
73085;BME280;62974;49.460;10.892;2022-09-09T06:33:41;97479.13;;;15.16;74.35
73085;BME280;62974;49.460;10.892;2022-09-09T06:36:12;97476.66;;;15.15;74.44
73085;BME280;62974;49.460;10.892;2022-09-09T06:38:40;97491.94;;;15.09;75.38
73085;BME280;62974;49.460;10.892;2022-09-09T06:41:09;97489.69;;;15.18;74.34
73085;BME280;62974;49.460;10.892;2022-09-09T06:43:38;97497.22;;;15.27;73.83
73085;BME280;62974;49.460;10.892;2022-09-09T06:46:08;97501.81;;;15.27;74.12
73085;BME280;62974;49.460;10.892;2022-09-09T06:48:39;97505.94;;;15.18;75.48
73085;BME280;62974;49.460;10.892;2022-09-09T06:51:09;97507.81;;;15.17;76.40
73085;BME280;62974;49.460;10.892;2022-09-09T06:53:38;97504.88;;;15.19;75.98
73085;BME280;62974;49.460;10.892;2022-09-09T06:56:19;97512.03;;;15.25;75.22
73085;BME280;62974;49.460;10.892;2022-09-09T06:58:50;97500.50;;;15.29;74.96
73085;BME280;62974;49.460;10.892;2022-09-09T07:01:19;97509.09;;;15.26;75.24
73085;BME280;62974;49.460;10.892;2022-09-09T07:03:48;97507.00;;;15.28;74.71
73085;BME280;62974;49.460;10.892;2022-09-09T07:06:19;97513.56;;;15.32;74.61
73085;BME280;62974;49.460;10.892;2022-09-09T07:08:51;97510.75;;;15.27;75.10
73085;BME280;62974;49.460;10.892;2022-09-09T07:11:23;97513.31;;;15.34;74.35
73085;BME280;62974;49.460;10.892;2022-09-09T07:13:53;97518.72;;;15.34;74.40
73085;BME280;62974;49.460;10.892;2022-09-09T07:16:22;97519.06;;;15.37;73.80
73085;BME280;62974;49.460;10.892;2022-09-09T07:18:51;97514.59;;;15.43;73.89
73085;BME280;62974;49.460;10.892;2022-09-09T07:21:25;97522.13;;;15.41;74.06
73085;BME280;62974;49.460;10.892;2022-09-09T07:23:54;97511.06;;;15.42;74.38
73085;BME280;62974;49.460;10.892;2022-09-09T07:26:23;97504.97;;;15.35;75.87
73085;BME280;62974;49.460;10.892;2022-09-09T07:28:53;97514.50;;;15.49;74.54
73085;BME280;62974;49.460;10.892;2022-09-09T07:31:25;97510.03;;;15.55;75.35
73085;BME280;62974;49.460;10.892;2022-09-09T07:33:53;97510.84;;;15.56;75.89
73085;BME280;62974;49.460;10.892;2022-09-09T07:36:23;97516.81;;;15.69;75.56
73085;BME280;62974;49.460;10.892;2022-09-09T07:38:59;97515.97;;;15.80;75.07
73085;BME280;62974;49.460;10.892;2022-09-09T07:41:30;97517.41;;;16.00;75.18
73085;BME280;62974;49.460;10.892;2022-09-09T07:44:04;97518.63;;;15.92;75.33
73085;BME280;62974;49.460;10.892;2022-09-09T07:46:33;97517.16;;;16.01;74.75
73085;BME280;62974;49.460;10.892;2022-09-09T07:49:01;97519.91;;;16.18;74.97
73085;BME280;62974;49.460;10.892;2022-09-09T07:51:31;97512.38;;;16.20;74.85
73085;BME280;62974;49.460;10.892;2022-09-09T07:54:01;97519.59;;;16.14;75.36
73085;BME280;62974;49.460;10.892;2022-09-09T07:56:30;97522.44;;;16.36;74.90
73085;BME280;62974;49.460;10.892;2022-09-09T07:59:00;97521.94;;;16.39;74.26
73085;BME280;62974;49.460;10.892;2022-09-09T08:01:30;97522.44;;;16.53;75.49
73085;BME280;62974;49.460;10.892;2022-09-09T08:04:00;97523.84;;;16.55;74.46
73085;BME280;62974;49.460;10.892;2022-09-09T08:06:29;97522.66;;;16.63;74.07
73085;BME280;62974;49.460;10.892;2022-09-09T08:08:57;97522.50;;;16.86;73.59
73085;BME280;62974;49.460;10.892;2022-09-09T08:11:27;97513.53;;;16.85;73.12
73085;BME280;62974;49.460;10.892;2022-09-09T08:13:55;97522.91;;;16.78;72.93
73085;BME280;62974;49.460;10.892;2022-09-09T08:16:31;97514.84;;;16.66;73.09
73085;BME280;62974;49.460;10.892;2022-09-09T08:18:59;97514.34;;;16.69;73.64
73085;BME280;62974;49.460;10.892;2022-09-09T08:21:29;97523.13;;;16.93;73.74
73085;BME280;62974;49.460;10.892;2022-09-09T08:24:00;97512.19;;;16.88;73.04
73085;BME280;62974;49.460;10.892;2022-09-09T08:26:29;97513.19;;;17.15;72.37
73085;BME280;62974;49.460;10.892;2022-09-09T08:28:59;97519.59;;;17.09;72.33
73085;BME280;62974;49.460;10.892;2022-09-09T08:31:31;97513.34;;;17.09;71.90
73085;BME280;62974;49.460;10.892;2022-09-09T08:34:00;97517.34;;;17.23;70.67
73085;BME280;62974;49.460;10.892;2022-09-09T08:36:31;97515.09;;;17.36;71.12
73085;BME280;62974;49.460;10.892;2022-09-09T08:39:00;97524.56;;;17.34;71.55
73085;BME280;62974;49.460;10.892;2022-09-09T08:41:35;97531.66;;;17.57;70.03
73085;BME280;62974;49.460;10.892;2022-09-09T08:44:08;97534.16;;;17.58;69.77
73085;BME280;62974;49.460;10.892;2022-09-09T08:46:44;97533.97;;;17.26;70.50
73085;BME280;62974;49.460;10.892;2022-09-09T08:49:26;97522.75;;;17.40;70.79
73085;BME280;62974;49.460;10.892;2022-09-09T08:51:57;97536.00;;;17.74;68.91
73085;BME280;62974;49.460;10.892;2022-09-09T08:54:27;97529.69;;;17.91;67.75
73085;BME280;62974;49.460;10.892;2022-09-09T08:57:20;97528.38;;;17.71;68.91
73085;BME280;62974;49.460;10.892;2022-09-09T08:59:52;97532.22;;;17.75;68.96
73085;BME280;62974;49.460;10.892;2022-09-09T09:02:25;97533.41;;;17.84;68.97
73085;BME280;62974;49.460;10.892;2022-09-09T09:05:03;97522.16;;;17.98;69.30
73085;BME280;62974;49.460;10.892;2022-09-09T09:07:44;97529.34;;;18.09;68.04
73085;BME280;62974;49.460;10.892;2022-09-09T09:10:24;97539.00;;;18.21;66.94
73085;BME280;62974;49.460;10.892;2022-09-09T09:13:13;97534.56;;;18.15;66.86
73085;BME280;62974;49.460;10.892;2022-09-09T09:15:44;97541.78;;;18.26;67.97
73085;BME280;62974;49.460;10.892;2022-09-09T09:18:16;97527.50;;;18.41;67.59
73085;BME280;62974;49.460;10.892;2022-09-09T09:20:50;97518.69;;;18.29;67.09
73085;BME280;62974;49.460;10.892;2022-09-09T09:23:22;97525.25;;;18.60;66.23
73085;BME280;62974;49.460;10.892;2022-09-09T09:25:52;97516.81;;;18.56;66.01
73085;BME280;62974;49.460;10.892;2022-09-09T09:28:25;97521.41;;;18.56;66.98
73085;BME280;62974;49.460;10.892;2022-09-09T09:30:57;97520.97;;;19.01;64.26
73085;BME280;62974;49.460;10.892;2022-09-09T09:33:33;97529.25;;;19.16;64.42
73085;BME280;62974;49.460;10.892;2022-09-09T09:36:02;97524.38;;;19.23;63.51
73085;BME280;62974;49.460;10.892;2022-09-09T09:38:34;97524.22;;;18.98;64.82
73085;BME280;62974;49.460;10.892;2022-09-09T09:41:30;97516.31;;;18.96;64.89
73085;BME280;62974;49.460;10.892;2022-09-09T09:43:58;97506.66;;;19.15;63.37
73085;BME280;62974;49.460;10.892;2022-09-09T09:46:27;97511.78;;;19.07;63.74
73085;BME280;62974;49.460;10.892;2022-09-09T09:49:01;97510.47;;;18.77;64.65
73085;BME280;62974;49.460;10.892;2022-09-09T09:51:30;97515.44;;;18.54;65.64
73085;BME280;62974;49.460;10.892;2022-09-09T09:54:08;97509.28;;;18.68;64.46
73085;BME280;62974;49.460;10.892;2022-09-09T09:56:37;97508.69;;;18.61;64.75
73085;BME280;62974;49.460;10.892;2022-09-09T09:59:17;97507.31;;;18.91;64.53
73085;BME280;62974;49.460;10.892;2022-09-09T10:02:21;97499.94;;;19.28;63.60
73085;BME280;62974;49.460;10.892;2022-09-09T10:05:02;97506.31;;;19.44;62.14
73085;BME280;62974;49.460;10.892;2022-09-09T10:07:30;97504.84;;;19.26;63.43
73085;BME280;62974;49.460;10.892;2022-09-09T10:09:59;97501.69;;;19.44;63.06
73085;BME280;62974;49.460;10.892;2022-09-09T10:12:37;97499.78;;;19.45;62.41
73085;BME280;62974;49.460;10.892;2022-09-09T10:15:26;97496.31;;;19.59;63.40
73085;BME280;62974;49.460;10.892;2022-09-09T10:18:08;97489.03;;;19.80;61.73
73085;BME280;62974;49.460;10.892;2022-09-09T10:20:46;97489.88;;;19.91;60.12
73085;BME280;62974;49.460;10.892;2022-09-09T10:23:29;97481.88;;;20.77;58.39
73085;BME280;62974;49.460;10.892;2022-09-09T10:26:11;97485.69;;;20.60;56.87
73085;BME280;62974;49.460;10.892;2022-09-09T10:29:02;97480.53;;;20.84;56.47
73085;BME280;62974;49.460;10.892;2022-09-09T10:31:38;97474.78;;;20.60;57.05
73085;BME280;62974;49.460;10.892;2022-09-09T10:34:17;97487.31;;;20.31;57.28
73085;BME280;62974;49.460;10.892;2022-09-09T10:36:49;97470.06;;;20.05;59.17
73085;BME280;62974;49.460;10.892;2022-09-09T10:39:31;97472.19;;;19.93;59.02
73085;BME280;62974;49.460;10.892;2022-09-09T10:42:09;97477.88;;;19.87;60.48
73085;BME280;62974;49.460;10.892;2022-09-09T10:44:50;97477.44;;;20.10;60.22
73085;BME280;62974;49.460;10.892;2022-09-09T10:47:33;97478.78;;;20.23;60.62
73085;BME280;62974;49.460;10.892;2022-09-09T10:50:18;97469.31;;;20.40;59.07
73085;BME280;62974;49.460;10.892;2022-09-09T10:53:22;97472.06;;;20.30;59.19
73085;BME280;62974;49.460;10.892;2022-09-09T10:55:53;97470.16;;;20.56;57.27
73085;BME280;62974;49.460;10.892;2022-09-09T10:58:28;97465.69;;;20.14;59.34
73085;BME280;62974;49.460;10.892;2022-09-09T11:01:00;97456.47;;;20.26;59.29
73085;BME280;62974;49.460;10.892;2022-09-09T11:03:31;97466.78;;;20.18;58.75
73085;BME280;62974;49.460;10.892;2022-09-09T11:06:05;97466.19;;;19.91;59.76
73085;BME280;62974;49.460;10.892;2022-09-09T11:08:38;97465.41;;;20.06;59.56
73085;BME280;62974;49.460;10.892;2022-09-09T11:11:10;97466.00;;;20.18;57.35
73085;BME280;62974;49.460;10.892;2022-09-09T11:13:44;97469.22;;;20.00;58.41
73085;BME280;62974;49.460;10.892;2022-09-09T11:16:22;97474.34;;;19.91;58.76
73085;BME280;62974;49.460;10.892;2022-09-09T11:18:55;97469.66;;;19.66;58.27
73085;BME280;62974;49.460;10.892;2022-09-09T11:21:26;97468.88;;;19.81;57.88
73085;BME280;62974;49.460;10.892;2022-09-09T11:29:49;97464.53;;;19.80;58.64
73085;BME280;62974;49.460;10.892;2022-09-09T11:32:39;97475.19;;;19.92;57.95
73085;BME280;62974;49.460;10.892;2022-09-09T11:35:25;97461.28;;;19.93;58.64
73085;BME280;62974;49.460;10.892;2022-09-09T11:38:16;97460.78;;;20.01;58.70
73085;BME280;62974;49.460;10.892;2022-09-09T11:40:46;97461.00;;;19.90;58.79
73085;BME280;62974;49.460;10.892;2022-09-09T11:43:25;97459.91;;;19.86;59.49
73085;BME280;62974;49.460;10.892;2022-09-09T11:45:57;97460.13;;;19.69;59.31
73085;BME280;62974;49.460;10.892;2022-09-09T11:48:33;97461.19;;;19.68;59.32
73085;BME280;62974;49.460;10.892;2022-09-09T11:51:05;97455.81;;;19.78;59.17
73085;BME280;62974;49.460;10.892;2022-09-09T11:53:51;97454.75;;;19.99;59.35
73085;BME280;62974;49.460;10.892;2022-09-09T11:56:33;97458.09;;;20.22;57.28
73085;BME280;62974;49.460;10.892;2022-09-09T11:59:05;97457.31;;;20.56;57.41
73085;BME280;62974;49.460;10.892;2022-09-09T12:01:39;97451.28;;;21.00;56.19
73085;BME280;62974;49.460;10.892;2022-09-09T12:04:39;97460.00;;;21.07;56.18
73085;BME280;62974;49.460;10.892;2022-09-09T12:07:25;97460.31;;;21.00;56.97
73085;BME280;62974;49.460;10.892;2022-09-09T12:09:58;97456.22;;;20.88;57.63
73085;BME280;62974;49.460;10.892;2022-09-09T12:12:31;97449.41;;;20.70;57.17
73085;BME280;62974;49.460;10.892;2022-09-09T12:15:24;97446.13;;;20.63;55.55
73085;BME280;62974;49.460;10.892;2022-09-09T12:17:57;97448.31;;;20.51;56.14
73085;BME280;62974;49.460;10.892;2022-09-09T12:20:34;97437.97;;;20.53;55.00
73085;BME280;62974;49.460;10.892;2022-09-09T12:23:23;97441.22;;;20.55;56.51
73085;BME280;62974;49.460;10.892;2022-09-09T12:26:07;97442.84;;;20.51;56.43
73085;BME280;62974;49.460;10.892;2022-09-09T12:28:47;97442.81;;;20.26;54.59
73085;BME280;62974;49.460;10.892;2022-09-09T12:31:26;97435.16;;;20.07;55.49
73085;BME280;62974;49.460;10.892;2022-09-09T12:34:09;97442.47;;;19.92;55.93
73085;BME280;62974;49.460;10.892;2022-09-09T12:36:39;97447.09;;;19.86;57.14
73085;BME280;62974;49.460;10.892;2022-09-09T12:39:17;97459.91;;;19.86;57.08
73085;BME280;62974;49.460;10.892;2022-09-09T12:41:52;97466.44;;;19.85;57.82
73085;BME280;62974;49.460;10.892;2022-09-09T12:44:24;97510.31;;;19.78;58.90
73085;BME280;62974;49.460;10.892;2022-09-09T12:46:57;97519.88;;;18.97;64.46
73085;BME280;62974;49.460;10.892;2022-09-09T12:49:31;97536.50;;;18.15;69.75
73085;BME280;62974;49.460;10.892;2022-09-09T12:52:07;97542.63;;;17.62;71.73
73085;BME280;62974;49.460;10.892;2022-09-09T12:54:43;97549.69;;;17.84;71.27
73085;BME280;62974;49.460;10.892;2022-09-09T12:57:14;97538.78;;;17.58;71.87
73085;BME280;62974;49.460;10.892;2022-09-09T12:59:45;97530.63;;;17.41;71.61
73085;BME280;62974;49.460;10.892;2022-09-09T13:02:25;97522.97;;;17.55;72.52
73085;BME280;62974;49.460;10.892;2022-09-09T13:05:06;97514.81;;;17.98;70.62
73085;BME280;62974;49.460;10.892;2022-09-09T13:07:43;97495.66;;;18.10;70.77
73085;BME280;62974;49.460;10.892;2022-09-09T13:10:14;97465.25;;;17.86;72.17
73085;BME280;62974;49.460;10.892;2022-09-09T13:13:01;97468.09;;;18.28;71.11
73085;BME280;62974;49.460;10.892;2022-09-09T13:15:34;97454.22;;;18.24;72.02
73085;BME280;62974;49.460;10.892;2022-09-09T13:18:07;97475.34;;;18.17;74.25
73085;BME280;62974;49.460;10.892;2022-09-09T13:20:46;97476.56;;;18.05;75.17
73085;BME280;62974;49.460;10.892;2022-09-09T13:23:31;97468.63;;;17.98;74.95
73085;BME280;62974;49.460;10.892;2022-09-09T13:26:02;97474.38;;;18.02;74.77